<?xml version="1.0" encoding="UTF-8" standalone="no" ?>
<gpx xmlns="http://www.topografix.com/GPX/1/1" xmlns:xsi="http://www.w3.org/2001/XMLSchema-instance" xsi:schemaLocation="http://www.topografix.com/GPX/1/1 http://www.topografix.com/GPX/1/1/gpx.xsd" version="1.1" creator="VisuGPX - https://www.visugpx.com">
  <metadata>
    <name>senepy à cheval</name>
    <desc><![CDATA[balade à cheval au senepy réalisé au printemps 2017]]></desc>
  </metadata>
  <trk>
    <name><![CDATA[20180622190837-wLRue]]></name>
    <trkseg>
      <trkpt lat="44.95713" lon="5.71882">
        <ele>654</ele>
        <time>2018-06-22T19:07:43Z</time>
      </trkpt>
      <trkpt lat="44.95758" lon="5.71944">
        <ele>668</ele>
        <time>2018-06-22T19:08:43Z</time>
      </trkpt>
      <trkpt lat="44.95757" lon="5.72012">
        <ele>665</ele>
        <time>2018-06-22T19:09:43Z</time>
      </trkpt>
      <trkpt lat="44.95692" lon="5.72045">
        <ele>663</ele>
        <time>2018-06-22T19:10:43Z</time>
      </trkpt>
      <trkpt lat="44.95707" lon="5.72131">
        <ele>674</ele>
        <time>2018-06-22T19:11:43Z</time>
      </trkpt>
      <trkpt lat="44.95663" lon="5.72169">
        <ele>676</ele>
        <time>2018-06-22T19:12:43Z</time>
      </trkpt>
      <trkpt lat="44.95643" lon="5.72272">
        <ele>680</ele>
        <time>2018-06-22T19:13:43Z</time>
      </trkpt>
      <trkpt lat="44.95602" lon="5.72379">
        <ele>685</ele>
        <time>2018-06-22T19:14:43Z</time>
      </trkpt>
      <trkpt lat="44.9559" lon="5.72504">
        <ele>692</ele>
        <time>2018-06-22T19:15:43Z</time>
      </trkpt>
      <trkpt lat="44.95567" lon="5.72485">
        <ele>694</ele>
        <time>2018-06-22T19:16:43Z</time>
      </trkpt>
      <trkpt lat="44.95566" lon="5.72416">
        <ele>692</ele>
        <time>2018-06-22T19:17:43Z</time>
      </trkpt>
      <trkpt lat="44.95538" lon="5.72435">
        <ele>699</ele>
        <time>2018-06-22T19:18:43Z</time>
      </trkpt>
      <trkpt lat="44.95499" lon="5.7257">
        <ele>710</ele>
        <time>2018-06-22T19:19:43Z</time>
      </trkpt>
      <trkpt lat="44.95481" lon="5.72615">
        <ele>717</ele>
        <time>2018-06-22T19:20:43Z</time>
      </trkpt>
      <trkpt lat="44.95465" lon="5.72753">
        <ele>732</ele>
        <time>2018-06-22T19:21:43Z</time>
      </trkpt>
      <trkpt lat="44.95499" lon="5.72764">
        <ele>727</ele>
        <time>2018-06-22T19:22:43Z</time>
      </trkpt>
      <trkpt lat="44.95529" lon="5.72746">
        <ele>721</ele>
        <time>2018-06-22T19:23:43Z</time>
      </trkpt>
      <trkpt lat="44.95582" lon="5.72813">
        <ele>733</ele>
        <time>2018-06-22T19:24:43Z</time>
      </trkpt>
      <trkpt lat="44.95581" lon="5.72912">
        <ele>748</ele>
        <time>2018-06-22T19:25:43Z</time>
      </trkpt>
      <trkpt lat="44.95541" lon="5.72972">
        <ele>761</ele>
        <time>2018-06-22T19:26:43Z</time>
      </trkpt>
      <trkpt lat="44.95506" lon="5.72963">
        <ele>761</ele>
        <time>2018-06-22T19:27:43Z</time>
      </trkpt>
      <trkpt lat="44.95561" lon="5.73143">
        <ele>783</ele>
        <time>2018-06-22T19:28:43Z</time>
      </trkpt>
      <trkpt lat="44.95602" lon="5.73274">
        <ele>789</ele>
        <time>2018-06-22T19:29:43Z</time>
      </trkpt>
      <trkpt lat="44.95644" lon="5.73371">
        <ele>794</ele>
        <time>2018-06-22T19:30:43Z</time>
      </trkpt>
      <trkpt lat="44.95641" lon="5.73435">
        <ele>800</ele>
        <time>2018-06-22T19:31:43Z</time>
      </trkpt>
      <trkpt lat="44.95594" lon="5.73437">
        <ele>806</ele>
        <time>2018-06-22T19:32:43Z</time>
      </trkpt>
      <trkpt lat="44.95613" lon="5.73564">
        <ele>812</ele>
        <time>2018-06-22T19:33:43Z</time>
      </trkpt>
      <trkpt lat="44.95597" lon="5.73723">
        <ele>818</ele>
        <time>2018-06-22T19:34:43Z</time>
      </trkpt>
      <trkpt lat="44.95553" lon="5.73836">
        <ele>834</ele>
        <time>2018-06-22T19:35:43Z</time>
      </trkpt>
      <trkpt lat="44.95446" lon="5.73922">
        <ele>854</ele>
        <time>2018-06-22T19:36:43Z</time>
      </trkpt>
      <trkpt lat="44.95421" lon="5.74027">
        <ele>852</ele>
        <time>2018-06-22T19:37:43Z</time>
      </trkpt>
      <trkpt lat="44.95389" lon="5.74133">
        <ele>866</ele>
        <time>2018-06-22T19:38:43Z</time>
      </trkpt>
      <trkpt lat="44.95354" lon="5.74096">
        <ele>869</ele>
        <time>2018-06-22T19:39:43Z</time>
      </trkpt>
      <trkpt lat="44.95326" lon="5.73969">
        <ele>893</ele>
        <time>2018-06-22T19:40:43Z</time>
      </trkpt>
      <trkpt lat="44.95307" lon="5.73866">
        <ele>905</ele>
        <time>2018-06-22T19:41:43Z</time>
      </trkpt>
      <trkpt lat="44.95279" lon="5.73781">
        <ele>921</ele>
        <time>2018-06-22T19:42:43Z</time>
      </trkpt>
      <trkpt lat="44.95361" lon="5.73761">
        <ele>905</ele>
        <time>2018-06-22T19:43:43Z</time>
      </trkpt>
      <trkpt lat="44.954" lon="5.73697">
        <ele>911</ele>
        <time>2018-06-22T19:44:43Z</time>
      </trkpt>
      <trkpt lat="44.95361" lon="5.73667">
        <ele>920</ele>
        <time>2018-06-22T19:45:43Z</time>
      </trkpt>
      <trkpt lat="44.95338" lon="5.73678">
        <ele>926</ele>
        <time>2018-06-22T19:46:43Z</time>
      </trkpt>
      <trkpt lat="44.95321" lon="5.73643">
        <ele>943</ele>
        <time>2018-06-22T19:47:43Z</time>
      </trkpt>
      <trkpt lat="44.95288" lon="5.73669">
        <ele>941</ele>
        <time>2018-06-22T19:48:43Z</time>
      </trkpt>
      <trkpt lat="44.95241" lon="5.73671">
        <ele>959</ele>
        <time>2018-06-22T19:49:43Z</time>
      </trkpt>
      <trkpt lat="44.95204" lon="5.73596">
        <ele>985</ele>
        <time>2018-06-22T19:50:43Z</time>
      </trkpt>
      <trkpt lat="44.95116" lon="5.73577">
        <ele>1020</ele>
        <time>2018-06-22T19:51:43Z</time>
      </trkpt>
      <trkpt lat="44.95043" lon="5.73598">
        <ele>1036</ele>
        <time>2018-06-22T19:52:43Z</time>
      </trkpt>
      <trkpt lat="44.94996" lon="5.7368">
        <ele>1051</ele>
        <time>2018-06-22T19:53:43Z</time>
      </trkpt>
      <trkpt lat="44.94966" lon="5.73781">
        <ele>1046</ele>
        <time>2018-06-22T19:54:43Z</time>
      </trkpt>
      <trkpt lat="44.94969" lon="5.73849">
        <ele>1039</ele>
        <time>2018-06-22T19:55:43Z</time>
      </trkpt>
      <trkpt lat="44.95017" lon="5.73854">
        <ele>1019</ele>
        <time>2018-06-22T19:56:43Z</time>
      </trkpt>
      <trkpt lat="44.94884" lon="5.73948">
        <ele>1068</ele>
        <time>2018-06-22T19:57:43Z</time>
      </trkpt>
      <trkpt lat="44.94837" lon="5.73931">
        <ele>1076</ele>
        <time>2018-06-22T19:58:43Z</time>
      </trkpt>
      <trkpt lat="44.94824" lon="5.73776">
        <ele>1113</ele>
        <time>2018-06-22T19:59:43Z</time>
      </trkpt>
      <trkpt lat="44.94824" lon="5.73678">
        <ele>1112</ele>
        <time>2018-06-22T20:00:43Z</time>
      </trkpt>
      <trkpt lat="44.94756" lon="5.73663">
        <ele>1129</ele>
        <time>2018-06-22T20:01:43Z</time>
      </trkpt>
      <trkpt lat="44.94689" lon="5.73613">
        <ele>1136</ele>
        <time>2018-06-22T20:02:43Z</time>
      </trkpt>
      <trkpt lat="44.94645" lon="5.73587">
        <ele>1149</ele>
        <time>2018-06-22T20:03:43Z</time>
      </trkpt>
      <trkpt lat="44.94551" lon="5.73547">
        <ele>1145</ele>
        <time>2018-06-22T20:04:43Z</time>
      </trkpt>
      <trkpt lat="44.94451" lon="5.73547">
        <ele>1157</ele>
        <time>2018-06-22T20:05:43Z</time>
      </trkpt>
      <trkpt lat="44.94384" lon="5.73564">
        <ele>1157</ele>
        <time>2018-06-22T20:06:43Z</time>
      </trkpt>
      <trkpt lat="44.9429" lon="5.73637">
        <ele>1177</ele>
        <time>2018-06-22T20:07:43Z</time>
      </trkpt>
      <trkpt lat="44.9414" lon="5.73708">
        <ele>1196</ele>
        <time>2018-06-22T20:08:43Z</time>
      </trkpt>
      <trkpt lat="44.94023" lon="5.73746">
        <ele>1203</ele>
        <time>2018-06-22T20:09:43Z</time>
      </trkpt>
      <trkpt lat="44.93938" lon="5.73761">
        <ele>1226</ele>
        <time>2018-06-22T20:10:43Z</time>
      </trkpt>
      <trkpt lat="44.93807" lon="5.73579">
        <ele>1236</ele>
        <time>2018-06-22T20:11:43Z</time>
      </trkpt>
      <trkpt lat="44.93857" lon="5.73422">
        <ele>1238</ele>
        <time>2018-06-22T20:12:43Z</time>
      </trkpt>
      <trkpt lat="44.93786" lon="5.735">
        <ele>1241</ele>
        <time>2018-06-22T20:13:43Z</time>
      </trkpt>
      <trkpt lat="44.93763" lon="5.73545">
        <ele>1242</ele>
        <time>2018-06-22T20:14:43Z</time>
      </trkpt>
      <trkpt lat="44.93701" lon="5.7359">
        <ele>1257</ele>
        <time>2018-06-22T20:15:43Z</time>
      </trkpt>
      <trkpt lat="44.9374" lon="5.73701">
        <ele>1264</ele>
        <time>2018-06-22T20:16:43Z</time>
      </trkpt>
      <trkpt lat="44.93769" lon="5.73811">
        <ele>1264</ele>
        <time>2018-06-22T20:17:43Z</time>
      </trkpt>
      <trkpt lat="44.93698" lon="5.73714">
        <ele>1270</ele>
        <time>2018-06-22T20:18:43Z</time>
      </trkpt>
      <trkpt lat="44.93755" lon="5.73873">
        <ele>1274</ele>
        <time>2018-06-22T20:19:43Z</time>
      </trkpt>
      <trkpt lat="44.93749" lon="5.74053">
        <ele>1301</ele>
        <time>2018-06-22T20:20:43Z</time>
      </trkpt>
      <trkpt lat="44.93722" lon="5.73927">
        <ele>1300</ele>
        <time>2018-06-22T20:21:43Z</time>
      </trkpt>
      <trkpt lat="44.9366" lon="5.73845">
        <ele>1304</ele>
        <time>2018-06-22T20:22:43Z</time>
      </trkpt>
      <trkpt lat="44.9367" lon="5.73976">
        <ele>1310</ele>
        <time>2018-06-22T20:23:43Z</time>
      </trkpt>
      <trkpt lat="44.93635" lon="5.7407">
        <ele>1327</ele>
        <time>2018-06-22T20:24:43Z</time>
      </trkpt>
      <trkpt lat="44.93608" lon="5.74139">
        <ele>1334</ele>
        <time>2018-06-22T20:25:43Z</time>
      </trkpt>
      <trkpt lat="44.93609" lon="5.74021">
        <ele>1332</ele>
        <time>2018-06-22T20:26:43Z</time>
      </trkpt>
      <trkpt lat="44.93579" lon="5.73989">
        <ele>1336</ele>
        <time>2018-06-22T20:27:43Z</time>
      </trkpt>
      <trkpt lat="44.93571" lon="5.74083">
        <ele>1344</ele>
        <time>2018-06-22T20:28:43Z</time>
      </trkpt>
      <trkpt lat="44.93506" lon="5.74276">
        <ele>1366</ele>
        <time>2018-06-22T20:29:43Z</time>
      </trkpt>
      <trkpt lat="44.93644" lon="5.74323">
        <ele>1365</ele>
        <time>2018-06-22T20:30:43Z</time>
      </trkpt>
      <trkpt lat="44.93701" lon="5.74384">
        <ele>1374</ele>
        <time>2018-06-22T20:31:43Z</time>
      </trkpt>
      <trkpt lat="44.93726" lon="5.74469">
        <ele>1388</ele>
        <time>2018-06-22T20:32:43Z</time>
      </trkpt>
      <trkpt lat="44.93799" lon="5.74577">
        <ele>1392</ele>
        <time>2018-06-22T20:33:43Z</time>
      </trkpt>
      <trkpt lat="44.93766" lon="5.7469">
        <ele>1402</ele>
        <time>2018-06-22T20:34:43Z</time>
      </trkpt>
      <trkpt lat="44.93631" lon="5.74658">
        <ele>1409</ele>
        <time>2018-06-22T20:35:43Z</time>
      </trkpt>
      <trkpt lat="44.93479" lon="5.74669">
        <ele>1406</ele>
        <time>2018-06-22T20:36:43Z</time>
      </trkpt>
      <trkpt lat="44.93386" lon="5.74667">
        <ele>1409</ele>
        <time>2018-06-22T20:37:43Z</time>
      </trkpt>
      <trkpt lat="44.933" lon="5.74697">
        <ele>1409</ele>
        <time>2018-06-22T20:38:43Z</time>
      </trkpt>
      <trkpt lat="44.93236" lon="5.74673">
        <ele>1416</ele>
        <time>2018-06-22T20:39:43Z</time>
      </trkpt>
      <trkpt lat="44.93198" lon="5.74656">
        <ele>1429</ele>
        <time>2018-06-22T20:40:43Z</time>
      </trkpt>
      <trkpt lat="44.9317" lon="5.74748">
        <ele>1414</ele>
        <time>2018-06-22T20:41:43Z</time>
      </trkpt>
      <trkpt lat="44.93114" lon="5.74888">
        <ele>1412</ele>
        <time>2018-06-22T20:42:43Z</time>
      </trkpt>
      <trkpt lat="44.93111" lon="5.74821">
        <ele>1422</ele>
        <time>2018-06-22T20:43:43Z</time>
      </trkpt>
      <trkpt lat="44.93126" lon="5.74738">
        <ele>1433</ele>
        <time>2018-06-22T20:44:43Z</time>
      </trkpt>
      <trkpt lat="44.93163" lon="5.74613">
        <ele>1448</ele>
        <time>2018-06-22T20:45:43Z</time>
      </trkpt>
      <trkpt lat="44.9323" lon="5.74594">
        <ele>1433</ele>
        <time>2018-06-22T20:46:43Z</time>
      </trkpt>
      <trkpt lat="44.93237" lon="5.74472">
        <ele>1436</ele>
        <time>2018-06-22T20:47:43Z</time>
      </trkpt>
      <trkpt lat="44.93224" lon="5.74414">
        <ele>1427</ele>
        <time>2018-06-22T20:48:43Z</time>
      </trkpt>
      <trkpt lat="44.93192" lon="5.7442">
        <ele>1440</ele>
        <time>2018-06-22T20:49:43Z</time>
      </trkpt>
      <trkpt lat="44.93117" lon="5.74291">
        <ele>1455</ele>
        <time>2018-06-22T20:50:43Z</time>
      </trkpt>
      <trkpt lat="44.93079" lon="5.74216">
        <ele>1474</ele>
        <time>2018-06-22T20:51:43Z</time>
      </trkpt>
      <trkpt lat="44.92905" lon="5.7416">
        <ele>1494</ele>
        <time>2018-06-22T20:52:43Z</time>
      </trkpt>
      <trkpt lat="44.92803" lon="5.74141">
        <ele>1500</ele>
        <time>2018-06-22T20:53:43Z</time>
      </trkpt>
      <trkpt lat="44.92693" lon="5.74117">
        <ele>1510</ele>
        <time>2018-06-22T20:54:43Z</time>
      </trkpt>
      <trkpt lat="44.92622" lon="5.74182">
        <ele>1516</ele>
        <time>2018-06-22T20:55:43Z</time>
      </trkpt>
      <trkpt lat="44.92558" lon="5.74203">
        <ele>1516</ele>
        <time>2018-06-22T20:56:43Z</time>
      </trkpt>
      <trkpt lat="44.92514" lon="5.74083">
        <ele>1519</ele>
        <time>2018-06-22T20:57:43Z</time>
      </trkpt>
      <trkpt lat="44.92505" lon="5.7401">
        <ele>1520</ele>
        <time>2018-06-22T20:58:43Z</time>
      </trkpt>
      <trkpt lat="44.92464" lon="5.74019">
        <ele>1528</ele>
        <time>2018-06-22T20:59:43Z</time>
      </trkpt>
      <trkpt lat="44.92387" lon="5.74117">
        <ele>1538</ele>
        <time>2018-06-22T21:00:43Z</time>
      </trkpt>
      <trkpt lat="44.92232" lon="5.74109">
        <ele>1558</ele>
        <time>2018-06-22T21:01:43Z</time>
      </trkpt>
      <trkpt lat="44.92055" lon="5.74023">
        <ele>1558</ele>
        <time>2018-06-22T21:02:43Z</time>
      </trkpt>
      <trkpt lat="44.91906" lon="5.73984">
        <ele>1562</ele>
        <time>2018-06-22T21:03:43Z</time>
      </trkpt>
      <trkpt lat="44.91805" lon="5.73959">
        <ele>1562</ele>
        <time>2018-06-22T21:04:43Z</time>
      </trkpt>
      <trkpt lat="44.91695" lon="5.73907">
        <ele>1571</ele>
        <time>2018-06-22T21:05:43Z</time>
      </trkpt>
      <trkpt lat="44.91522" lon="5.73718">
        <ele>1571</ele>
        <time>2018-06-22T21:06:43Z</time>
      </trkpt>
      <trkpt lat="44.91435" lon="5.73663">
        <ele>1579</ele>
        <time>2018-06-22T21:07:43Z</time>
      </trkpt>
      <trkpt lat="44.91329" lon="5.73564">
        <ele>1586</ele>
        <time>2018-06-22T21:08:43Z</time>
      </trkpt>
      <trkpt lat="44.91261" lon="5.73446">
        <ele>1580</ele>
        <time>2018-06-22T21:09:43Z</time>
      </trkpt>
      <trkpt lat="44.91186" lon="5.73392">
        <ele>1572</ele>
        <time>2018-06-22T21:10:43Z</time>
      </trkpt>
      <trkpt lat="44.91177" lon="5.73191">
        <ele>1548</ele>
        <time>2018-06-22T21:11:43Z</time>
      </trkpt>
      <trkpt lat="44.91139" lon="5.73079">
        <ele>1536</ele>
        <time>2018-06-22T21:12:43Z</time>
      </trkpt>
      <trkpt lat="44.91128" lon="5.72987">
        <ele>1533</ele>
        <time>2018-06-22T21:13:43Z</time>
      </trkpt>
      <trkpt lat="44.91138" lon="5.72875">
        <ele>1529</ele>
        <time>2018-06-22T21:14:43Z</time>
      </trkpt>
      <trkpt lat="44.9108" lon="5.72806">
        <ele>1542</ele>
        <time>2018-06-22T21:15:43Z</time>
      </trkpt>
      <trkpt lat="44.91008" lon="5.72772">
        <ele>1550</ele>
        <time>2018-06-22T21:16:43Z</time>
      </trkpt>
      <trkpt lat="44.90922" lon="5.72712">
        <ele>1567</ele>
        <time>2018-06-22T21:17:43Z</time>
      </trkpt>
      <trkpt lat="44.90808" lon="5.72714">
        <ele>1576</ele>
        <time>2018-06-22T21:18:43Z</time>
      </trkpt>
      <trkpt lat="44.90752" lon="5.72716">
        <ele>1579</ele>
        <time>2018-06-22T21:19:43Z</time>
      </trkpt>
      <trkpt lat="44.90695" lon="5.72725">
        <ele>1587</ele>
        <time>2018-06-22T21:20:43Z</time>
      </trkpt>
      <trkpt lat="44.90546" lon="5.72596">
        <ele>1590</ele>
        <time>2018-06-22T21:21:43Z</time>
      </trkpt>
      <trkpt lat="44.90679" lon="5.72637">
        <ele>1622</ele>
        <time>2018-06-22T21:22:43Z</time>
      </trkpt>
      <trkpt lat="44.90714" lon="5.72641">
        <ele>1623</ele>
        <time>2018-06-22T21:23:43Z</time>
      </trkpt>
      <trkpt lat="44.9079" lon="5.72588">
        <ele>1624</ele>
        <time>2018-06-22T21:24:43Z</time>
      </trkpt>
      <trkpt lat="44.90715" lon="5.72583">
        <ele>1654</ele>
        <time>2018-06-22T21:25:43Z</time>
      </trkpt>
      <trkpt lat="44.90647" lon="5.72553">
        <ele>1645</ele>
        <time>2018-06-22T21:26:43Z</time>
      </trkpt>
      <trkpt lat="44.90612" lon="5.72478">
        <ele>1674</ele>
        <time>2018-06-22T21:27:43Z</time>
      </trkpt>
      <trkpt lat="44.90692" lon="5.72502">
        <ele>1667</ele>
        <time>2018-06-22T21:28:43Z</time>
      </trkpt>
      <trkpt lat="44.90767" lon="5.72444">
        <ele>1691</ele>
        <time>2018-06-22T21:29:43Z</time>
      </trkpt>
      <trkpt lat="44.90846" lon="5.72386">
        <ele>1694</ele>
        <time>2018-06-22T21:30:43Z</time>
      </trkpt>
      <trkpt lat="44.90723" lon="5.72382">
        <ele>1718</ele>
        <time>2018-06-22T21:31:43Z</time>
      </trkpt>
      <trkpt lat="44.90625" lon="5.72347">
        <ele>1722</ele>
        <time>2018-06-22T21:32:43Z</time>
      </trkpt>
      <trkpt lat="44.90557" lon="5.72274">
        <ele>1734</ele>
        <time>2018-06-22T21:33:43Z</time>
      </trkpt>
      <trkpt lat="44.90531" lon="5.72115">
        <ele>1750</ele>
        <time>2018-06-22T21:34:43Z</time>
      </trkpt>
      <trkpt lat="44.9065" lon="5.72073">
        <ele>1756</ele>
        <time>2018-06-22T21:35:43Z</time>
      </trkpt>
      <trkpt lat="44.90755" lon="5.72096">
        <ele>1762</ele>
        <time>2018-06-22T21:36:43Z</time>
      </trkpt>
      <trkpt lat="44.90864" lon="5.72036">
        <ele>1753</ele>
        <time>2018-06-22T21:37:43Z</time>
      </trkpt>
      <trkpt lat="44.9104" lon="5.71813">
        <ele>1734</ele>
        <time>2018-06-22T21:38:43Z</time>
      </trkpt>
      <trkpt lat="44.91177" lon="5.71695">
        <ele>1712</ele>
        <time>2018-06-22T21:39:43Z</time>
      </trkpt>
      <trkpt lat="44.91309" lon="5.7156">
        <ele>1700</ele>
        <time>2018-06-22T21:40:43Z</time>
      </trkpt>
      <trkpt lat="44.91461" lon="5.71437">
        <ele>1679</ele>
        <time>2018-06-22T21:41:43Z</time>
      </trkpt>
      <trkpt lat="44.91577" lon="5.71388">
        <ele>1655</ele>
        <time>2018-06-22T21:42:43Z</time>
      </trkpt>
      <trkpt lat="44.91683" lon="5.71279">
        <ele>1630</ele>
        <time>2018-06-22T21:43:43Z</time>
      </trkpt>
      <trkpt lat="44.9184" lon="5.71242">
        <ele>1600</ele>
        <time>2018-06-22T21:44:43Z</time>
      </trkpt>
      <trkpt lat="44.91928" lon="5.71133">
        <ele>1585</ele>
        <time>2018-06-22T21:45:43Z</time>
      </trkpt>
      <trkpt lat="44.92014" lon="5.71055">
        <ele>1578</ele>
        <time>2018-06-22T21:46:43Z</time>
      </trkpt>
      <trkpt lat="44.92156" lon="5.71028">
        <ele>1566</ele>
        <time>2018-06-22T21:47:43Z</time>
      </trkpt>
      <trkpt lat="44.92266" lon="5.71019">
        <ele>1543</ele>
        <time>2018-06-22T21:48:43Z</time>
      </trkpt>
      <trkpt lat="44.92321" lon="5.70976">
        <ele>1540</ele>
        <time>2018-06-22T21:49:43Z</time>
      </trkpt>
      <trkpt lat="44.9233" lon="5.70937">
        <ele>1539</ele>
        <time>2018-06-22T21:50:43Z</time>
      </trkpt>
      <trkpt lat="44.92434" lon="5.7095">
        <ele>1518</ele>
        <time>2018-06-22T21:51:43Z</time>
      </trkpt>
      <trkpt lat="44.92532" lon="5.7089">
        <ele>1507</ele>
        <time>2018-06-22T21:52:43Z</time>
      </trkpt>
      <trkpt lat="44.92628" lon="5.70843">
        <ele>1492</ele>
        <time>2018-06-22T21:53:43Z</time>
      </trkpt>
      <trkpt lat="44.92756" lon="5.708">
        <ele>1446</ele>
        <time>2018-06-22T21:54:43Z</time>
      </trkpt>
      <trkpt lat="44.92795" lon="5.7077">
        <ele>1438</ele>
        <time>2018-06-22T21:55:43Z</time>
      </trkpt>
      <trkpt lat="44.92917" lon="5.70774">
        <ele>1406</ele>
        <time>2018-06-22T21:56:43Z</time>
      </trkpt>
      <trkpt lat="44.93047" lon="5.7071">
        <ele>1385</ele>
        <time>2018-06-22T21:57:43Z</time>
      </trkpt>
      <trkpt lat="44.93158" lon="5.70592">
        <ele>1355</ele>
        <time>2018-06-22T21:58:43Z</time>
      </trkpt>
      <trkpt lat="44.93193" lon="5.70487">
        <ele>1331</ele>
        <time>2018-06-22T21:59:43Z</time>
      </trkpt>
      <trkpt lat="44.93225" lon="5.70384">
        <ele>1306</ele>
        <time>2018-06-22T22:00:43Z</time>
      </trkpt>
      <trkpt lat="44.93342" lon="5.70356">
        <ele>1296</ele>
        <time>2018-06-22T22:01:43Z</time>
      </trkpt>
      <trkpt lat="44.93552" lon="5.70453">
        <ele>1311</ele>
        <time>2018-06-22T22:02:43Z</time>
      </trkpt>
      <trkpt lat="44.9365" lon="5.70521">
        <ele>1316</ele>
        <time>2018-06-22T22:03:43Z</time>
      </trkpt>
      <trkpt lat="44.93751" lon="5.70571">
        <ele>1311</ele>
        <time>2018-06-22T22:04:43Z</time>
      </trkpt>
      <trkpt lat="44.93842" lon="5.70564">
        <ele>1298</ele>
        <time>2018-06-22T22:05:43Z</time>
      </trkpt>
      <trkpt lat="44.94038" lon="5.70459">
        <ele>1233</ele>
        <time>2018-06-22T22:06:43Z</time>
      </trkpt>
      <trkpt lat="44.9405" lon="5.70579">
        <ele>1215</ele>
        <time>2018-06-22T22:07:43Z</time>
      </trkpt>
      <trkpt lat="44.94143" lon="5.70508">
        <ele>1175</ele>
        <time>2018-06-22T22:08:43Z</time>
      </trkpt>
      <trkpt lat="44.94304" lon="5.70463">
        <ele>1129</ele>
        <time>2018-06-22T22:09:43Z</time>
      </trkpt>
      <trkpt lat="44.94475" lon="5.70425">
        <ele>1064</ele>
        <time>2018-06-22T22:10:43Z</time>
      </trkpt>
      <trkpt lat="44.94442" lon="5.70487">
        <ele>1054</ele>
        <time>2018-06-22T22:11:43Z</time>
      </trkpt>
      <trkpt lat="44.94411" lon="5.70545">
        <ele>1043</ele>
        <time>2018-06-22T22:12:43Z</time>
      </trkpt>
      <trkpt lat="44.94383" lon="5.70607">
        <ele>1018</ele>
        <time>2018-06-22T22:13:43Z</time>
      </trkpt>
      <trkpt lat="44.94288" lon="5.70865">
        <ele>972</ele>
        <time>2018-06-22T22:14:43Z</time>
      </trkpt>
      <trkpt lat="44.94256" lon="5.71023">
        <ele>929</ele>
        <time>2018-06-22T22:15:43Z</time>
      </trkpt>
      <trkpt lat="44.94279" lon="5.71068">
        <ele>916</ele>
        <time>2018-06-22T22:16:43Z</time>
      </trkpt>
      <trkpt lat="44.94307" lon="5.71071">
        <ele>909</ele>
        <time>2018-06-22T22:17:43Z</time>
      </trkpt>
      <trkpt lat="44.94273" lon="5.71189">
        <ele>888</ele>
        <time>2018-06-22T22:18:43Z</time>
      </trkpt>
      <trkpt lat="44.94398" lon="5.71148">
        <ele>864</ele>
        <time>2018-06-22T22:19:43Z</time>
      </trkpt>
      <trkpt lat="44.94454" lon="5.71023">
        <ele>846</ele>
        <time>2018-06-22T22:20:43Z</time>
      </trkpt>
      <trkpt lat="44.94513" lon="5.70963">
        <ele>826</ele>
        <time>2018-06-22T22:21:43Z</time>
      </trkpt>
      <trkpt lat="44.9461" lon="5.70918">
        <ele>798</ele>
        <time>2018-06-22T22:22:43Z</time>
      </trkpt>
      <trkpt lat="44.94651" lon="5.70991">
        <ele>776</ele>
        <time>2018-06-22T22:23:43Z</time>
      </trkpt>
      <trkpt lat="44.94638" lon="5.71131">
        <ele>762</ele>
        <time>2018-06-22T22:24:43Z</time>
      </trkpt>
      <trkpt lat="44.94592" lon="5.71221">
        <ele>755</ele>
        <time>2018-06-22T22:25:43Z</time>
      </trkpt>
      <trkpt lat="44.94651" lon="5.71186">
        <ele>749</ele>
        <time>2018-06-22T22:26:43Z</time>
      </trkpt>
      <trkpt lat="44.94689" lon="5.71077">
        <ele>746</ele>
        <time>2018-06-22T22:27:43Z</time>
      </trkpt>
      <trkpt lat="44.94744" lon="5.71083">
        <ele>730</ele>
        <time>2018-06-22T22:28:43Z</time>
      </trkpt>
      <trkpt lat="44.9478" lon="5.71081">
        <ele>720</ele>
        <time>2018-06-22T22:29:43Z</time>
      </trkpt>
      <trkpt lat="44.94808" lon="5.71017">
        <ele>715</ele>
        <time>2018-06-22T22:30:43Z</time>
      </trkpt>
      <trkpt lat="44.9496" lon="5.7104">
        <ele>670</ele>
        <time>2018-06-22T22:31:43Z</time>
      </trkpt>
      <trkpt lat="44.95004" lon="5.70987">
        <ele>656</ele>
        <time>2018-06-22T22:32:43Z</time>
      </trkpt>
      <trkpt lat="44.9513" lon="5.70957">
        <ele>625</ele>
        <time>2018-06-22T22:33:43Z</time>
      </trkpt>
      <trkpt lat="44.95108" lon="5.71109">
        <ele>621</ele>
        <time>2018-06-22T22:34:43Z</time>
      </trkpt>
      <trkpt lat="44.95113" lon="5.7115">
        <ele>620</ele>
        <time>2018-06-22T22:35:43Z</time>
      </trkpt>
      <trkpt lat="44.95162" lon="5.71146">
        <ele>616</ele>
        <time>2018-06-22T22:36:43Z</time>
      </trkpt>
      <trkpt lat="44.95207" lon="5.71182">
        <ele>616</ele>
        <time>2018-06-22T22:37:43Z</time>
      </trkpt>
      <trkpt lat="44.95292" lon="5.71165">
        <ele>618</ele>
        <time>2018-06-22T22:38:43Z</time>
      </trkpt>
      <trkpt lat="44.95364" lon="5.71182">
        <ele>628</ele>
        <time>2018-06-22T22:39:43Z</time>
      </trkpt>
      <trkpt lat="44.95353" lon="5.71319">
        <ele>636</ele>
        <time>2018-06-22T22:40:43Z</time>
      </trkpt>
      <trkpt lat="44.95405" lon="5.71416">
        <ele>640</ele>
        <time>2018-06-22T22:41:43Z</time>
      </trkpt>
      <trkpt lat="44.95487" lon="5.71474">
        <ele>638</ele>
        <time>2018-06-22T22:42:43Z</time>
      </trkpt>
      <trkpt lat="44.95515" lon="5.71665">
        <ele>645</ele>
        <time>2018-06-22T22:43:43Z</time>
      </trkpt>
      <trkpt lat="44.95553" lon="5.71749">
        <ele>647</ele>
        <time>2018-06-22T22:44:43Z</time>
      </trkpt>
      <trkpt lat="44.9561" lon="5.71669">
        <ele>642</ele>
        <time>2018-06-22T22:45:43Z</time>
      </trkpt>
      <trkpt lat="44.95638" lon="5.71794">
        <ele>645</ele>
        <time>2018-06-22T22:46:43Z</time>
      </trkpt>
      <trkpt lat="44.95717" lon="5.71882">
        <ele>655</ele>
        <time>2018-06-22T22:47:43Z</time>
      </trkpt>
    </trkseg>
  </trk>
</gpx>